sensor_id;sensor_type;location;lat;lon;timestamp;pressure;altitude;pressure_sealevel;temperature;humidity
77626;BME280;66794;43.764;10.436;2023-07-20T00:00:20;101251.94;;;26.46;100.00
77626;BME280;66794;43.764;10.436;2023-07-20T00:03:13;101255.56;;;26.46;100.00
77626;BME280;66794;43.764;10.436;2023-07-20T00:06:02;101240.56;;;26.42;100.00
77626;BME280;66794;43.764;10.436;2023-07-20T00:08:49;101240.00;;;26.45;100.00
77626;BME280;66794;43.764;10.436;2023-07-20T00:11:37;101250.97;;;26.25;100.00
77626;BME280;66794;43.764;10.436;2023-07-20T00:14:23;101242.72;;;26.40;100.00
77626;BME280;66794;43.764;10.436;2023-07-20T00:17:09;101227.09;;;26.24;100.00
77626;BME280;66794;43.764;10.436;2023-07-20T00:19:55;101220.22;;;26.37;100.00
77626;BME280;66794;43.764;10.436;2023-07-20T00:22:40;101218.63;;;26.46;100.00
77626;BME280;66794;43.764;10.436;2023-07-20T00:25:26;101207.59;;;26.61;100.00
77626;BME280;66794;43.764;10.436;2023-07-20T00:28:12;101188.94;;;26.57;100.00
77626;BME280;66794;43.764;10.436;2023-07-20T00:30:59;101195.72;;;26.91;100.00
77626;BME280;66794;43.764;10.436;2023-07-20T00:33:45;101205.13;;;26.80;100.00
77626;BME280;66794;43.764;10.436;2023-07-20T00:36:31;101185.75;;;26.28;100.00
77626;BME280;66794;43.764;10.436;2023-07-20T00:39:17;101192.25;;;26.48;100.00
77626;BME280;66794;43.764;10.436;2023-07-20T00:42:03;101179.75;;;26.46;100.00
77626;BME280;66794;43.764;10.436;2023-07-20T00:44:49;101164.84;;;26.10;100.00
77626;BME280;66794;43.764;10.436;2023-07-20T00:47:36;101201.03;;;26.30;100.00
77626;BME280;66794;43.764;10.436;2023-07-20T00:50:22;101196.03;;;26.27;100.00
77626;BME280;66794;43.764;10.436;2023-07-20T00:53:08;101187.28;;;26.03;100.00
77626;BME280;66794;43.764;10.436;2023-07-20T00:55:54;101194.03;;;26.17;100.00
77626;BME280;66794;43.764;10.436;2023-07-20T00:58:40;101193.00;;;25.86;100.00
77626;BME280;66794;43.764;10.436;2023-07-20T01:01:26;101206.59;;;25.51;100.00
77626;BME280;66794;43.764;10.436;2023-07-20T01:04:12;101200.78;;;25.84;100.00
77626;BME280;66794;43.764;10.436;2023-07-20T01:07:26;101204.41;;;25.90;100.00
77626;BME280;66794;43.764;10.436;2023-07-20T01:10:48;101198.72;;;26.12;100.00
77626;BME280;66794;43.764;10.436;2023-07-20T01:13:36;101186.97;;;25.94;100.00
77626;BME280;66794;43.764;10.436;2023-07-20T01:16:22;101198.03;;;25.89;100.00
77626;BME280;66794;43.764;10.436;2023-07-20T01:19:08;101211.13;;;25.94;100.00
77626;BME280;66794;43.764;10.436;2023-07-20T01:29:04;101206.31;;;25.84;100.00
77626;BME280;66794;43.764;10.436;2023-07-20T01:31:41;101210.59;;;26.02;100.00
77626;BME280;66794;43.764;10.436;2023-07-20T01:34:29;101210.00;;;25.95;100.00
77626;BME280;66794;43.764;10.436;2023-07-20T01:37:17;101208.91;;;26.01;100.00
77626;BME280;66794;43.764;10.436;2023-07-20T01:40:06;101208.66;;;26.03;100.00
77626;BME280;66794;43.764;10.436;2023-07-20T01:42:52;101185.88;;;25.63;100.00
77626;BME280;66794;43.764;10.436;2023-07-20T01:45:38;101183.78;;;25.43;100.00
77626;BME280;66794;43.764;10.436;2023-07-20T01:48:25;101218.28;;;25.58;100.00
77626;BME280;66794;43.764;10.436;2023-07-20T01:51:11;101217.22;;;25.64;100.00
77626;BME280;66794;43.764;10.436;2023-07-20T01:53:57;101210.38;;;25.39;100.00
77626;BME280;66794;43.764;10.436;2023-07-20T01:56:43;101220.13;;;25.15;100.00
77626;BME280;66794;43.764;10.436;2023-07-20T01:59:29;101212.84;;;25.36;100.00
77626;BME280;66794;43.764;10.436;2023-07-20T02:02:14;101208.69;;;25.38;100.00
77626;BME280;66794;43.764;10.436;2023-07-20T02:05:00;101197.22;;;25.25;100.00
77626;BME280;66794;43.764;10.436;2023-07-20T02:07:46;101206.06;;;25.54;100.00
77626;BME280;66794;43.764;10.436;2023-07-20T02:10:32;101196.41;;;25.61;100.00
77626;BME280;66794;43.764;10.436;2023-07-20T02:13:18;101183.03;;;25.53;100.00
77626;BME280;66794;43.764;10.436;2023-07-20T02:16:03;101198.38;;;25.66;100.00
77626;BME280;66794;43.764;10.436;2023-07-20T02:18:49;101183.97;;;25.05;100.00
77626;BME280;66794;43.764;10.436;2023-07-20T02:21:35;101204.91;;;25.17;100.00
77626;BME280;66794;43.764;10.436;2023-07-20T02:24:21;101202.06;;;25.39;100.00
77626;BME280;66794;43.764;10.436;2023-07-20T02:27:06;101177.31;;;25.33;100.00
77626;BME280;66794;43.764;10.436;2023-07-20T02:29:52;101180.09;;;25.33;100.00
77626;BME280;66794;43.764;10.436;2023-07-20T02:32:38;101207.81;;;25.33;100.00
77626;BME280;66794;43.764;10.436;2023-07-20T02:35:24;101194.53;;;25.35;100.00
77626;BME280;66794;43.764;10.436;2023-07-20T02:38:10;101200.13;;;25.40;100.00
77626;BME280;66794;43.764;10.436;2023-07-20T02:40:56;101186.03;;;25.14;100.00
77626;BME280;66794;43.764;10.436;2023-07-20T02:43:41;101194.03;;;25.11;100.00
77626;BME280;66794;43.764;10.436;2023-07-20T02:46:27;101189.69;;;25.20;100.00
77626;BME280;66794;43.764;10.436;2023-07-20T02:49:15;101196.06;;;25.21;100.00
77626;BME280;66794;43.764;10.436;2023-07-20T02:52:01;101171.28;;;25.09;100.00
77626;BME280;66794;43.764;10.436;2023-07-20T02:54:47;101201.34;;;24.73;100.00
77626;BME280;66794;43.764;10.436;2023-07-20T02:57:33;101198.81;;;24.45;100.00
77626;BME280;66794;43.764;10.436;2023-07-20T03:00:19;101201.75;;;24.60;100.00
77626;BME280;66794;43.764;10.436;2023-07-20T03:03:04;101206.25;;;24.66;100.00
77626;BME280;66794;43.764;10.436;2023-07-20T03:05:55;101194.56;;;24.37;100.00
77626;BME280;66794;43.764;10.436;2023-07-20T03:08:44;101198.38;;;24.53;100.00
77626;BME280;66794;43.764;10.436;2023-07-20T03:11:32;101225.72;;;24.71;100.00
77626;BME280;66794;43.764;10.436;2023-07-20T03:14:19;101212.56;;;24.83;100.00
77626;BME280;66794;43.764;10.436;2023-07-20T03:17:05;101190.22;;;24.46;100.00
77626;BME280;66794;43.764;10.436;2023-07-20T03:19:51;101215.69;;;24.43;100.00
77626;BME280;66794;43.764;10.436;2023-07-20T03:22:36;101214.31;;;24.67;100.00
77626;BME280;66794;43.764;10.436;2023-07-20T03:25:22;101217.59;;;24.86;100.00
77626;BME280;66794;43.764;10.436;2023-07-20T03:28:08;101211.19;;;24.59;100.00
77626;BME280;66794;43.764;10.436;2023-07-20T03:30:57;101206.13;;;24.56;100.00
77626;BME280;66794;43.764;10.436;2023-07-20T03:33:43;101198.03;;;24.71;100.00
77626;BME280;66794;43.764;10.436;2023-07-20T03:36:29;101212.44;;;25.00;100.00
77626;BME280;66794;43.764;10.436;2023-07-20T03:39:17;101194.94;;;24.95;100.00
77626;BME280;66794;43.764;10.436;2023-07-20T03:42:03;101191.34;;;24.94;100.00
77626;BME280;66794;43.764;10.436;2023-07-20T03:44:48;101210.19;;;25.19;100.00
77626;BME280;66794;43.764;10.436;2023-07-20T03:47:34;101212.38;;;25.17;100.00
77626;BME280;66794;43.764;10.436;2023-07-20T03:50:20;101201.59;;;25.21;100.00
77626;BME280;66794;43.764;10.436;2023-07-20T03:53:06;101200.44;;;25.16;100.00
77626;BME280;66794;43.764;10.436;2023-07-20T03:55:52;101209.75;;;25.32;100.00
77626;BME280;66794;43.764;10.436;2023-07-20T03:58:38;101201.66;;;25.26;100.00
77626;BME280;66794;43.764;10.436;2023-07-20T04:01:24;101206.31;;;25.20;100.00
77626;BME280;66794;43.764;10.436;2023-07-20T04:04:09;101177.06;;;24.80;100.00
77626;BME280;66794;43.764;10.436;2023-07-20T04:06:55;101222.53;;;24.84;100.00
77626;BME280;66794;43.764;10.436;2023-07-20T04:09:41;101220.75;;;24.73;100.00
77626;BME280;66794;43.764;10.436;2023-07-20T04:12:27;101233.44;;;24.91;100.00
77626;BME280;66794;43.764;10.436;2023-07-20T04:15:13;101220.63;;;25.07;100.00
77626;BME280;66794;43.764;10.436;2023-07-20T04:17:59;101224.88;;;25.20;100.00
77626;BME280;66794;43.764;10.436;2023-07-20T04:20:46;101214.44;;;25.05;100.00
77626;BME280;66794;43.764;10.436;2023-07-20T04:23:32;101232.16;;;25.26;100.00
77626;BME280;66794;43.764;10.436;2023-07-20T04:26:18;101221.44;;;25.34;100.00
77626;BME280;66794;43.764;10.436;2023-07-20T04:29:03;101215.97;;;25.44;100.00
77626;BME280;66794;43.764;10.436;2023-07-20T04:31:49;101218.75;;;25.50;100.00
77626;BME280;66794;43.764;10.436;2023-07-20T04:34:35;101227.13;;;24.96;100.00
77626;BME280;66794;43.764;10.436;2023-07-20T04:37:22;101236.34;;;24.79;100.00
77626;BME280;66794;43.764;10.436;2023-07-20T04:40:08;101225.56;;;24.83;100.00
77626;BME280;66794;43.764;10.436;2023-07-20T04:42:54;101238.78;;;25.25;100.00
77626;BME280;66794;43.764;10.436;2023-07-20T04:45:40;101238.78;;;25.52;100.00
77626;BME280;66794;43.764;10.436;2023-07-20T04:48:26;101240.28;;;25.69;100.00
77626;BME280;66794;43.764;10.436;2023-07-20T04:51:12;101213.19;;;25.77;100.00
77626;BME280;66794;43.764;10.436;2023-07-20T04:53:58;101221.91;;;25.90;100.00
77626;BME280;66794;43.764;10.436;2023-07-20T04:56:44;101211.88;;;25.84;100.00
77626;BME280;66794;43.764;10.436;2023-07-20T04:59:29;101196.38;;;25.88;100.00
77626;BME280;66794;43.764;10.436;2023-07-20T05:02:15;101187.50;;;25.91;100.00
77626;BME280;66794;43.764;10.436;2023-07-20T05:05:01;101199.25;;;26.09;100.00
77626;BME280;66794;43.764;10.436;2023-07-20T05:07:47;101205.06;;;26.07;100.00
77626;BME280;66794;43.764;10.436;2023-07-20T05:10:33;101191.81;;;26.19;100.00
77626;BME280;66794;43.764;10.436;2023-07-20T05:13:18;101179.56;;;26.10;100.00
77626;BME280;66794;43.764;10.436;2023-07-20T05:16:04;101178.47;;;26.11;100.00
77626;BME280;66794;43.764;10.436;2023-07-20T05:18:50;101186.25;;;26.19;100.00
77626;BME280;66794;43.764;10.436;2023-07-20T05:21:36;101182.66;;;26.24;100.00
77626;BME280;66794;43.764;10.436;2023-07-20T05:24:22;101172.41;;;26.25;100.00
77626;BME280;66794;43.764;10.436;2023-07-20T05:27:08;101192.75;;;26.40;100.00
77626;BME280;66794;43.764;10.436;2023-07-20T05:29:53;101182.16;;;26.32;100.00
77626;BME280;66794;43.764;10.436;2023-07-20T05:32:39;101186.97;;;26.47;100.00
77626;BME280;66794;43.764;10.436;2023-07-20T05:35:26;101179.19;;;26.44;100.00
77626;BME280;66794;43.764;10.436;2023-07-20T05:38:11;101184.22;;;26.52;100.00
77626;BME280;66794;43.764;10.436;2023-07-20T05:40:59;101153.94;;;26.51;100.00
77626;BME280;66794;43.764;10.436;2023-07-20T05:43:49;101162.31;;;26.66;100.00
77626;BME280;66794;43.764;10.436;2023-07-20T05:46:35;101179.53;;;26.68;100.00
77626;BME280;66794;43.764;10.436;2023-07-20T05:49:21;101183.75;;;26.76;100.00
77626;BME280;66794;43.764;10.436;2023-07-20T05:52:07;101172.34;;;26.77;100.00
77626;BME280;66794;43.764;10.436;2023-07-20T05:54:52;101184.59;;;26.81;100.00
77626;BME280;66794;43.764;10.436;2023-07-20T05:57:38;101178.47;;;26.89;100.00
77626;BME280;66794;43.764;10.436;2023-07-20T06:00:27;101183.50;;;26.92;100.00
77626;BME280;66794;43.764;10.436;2023-07-20T06:03:13;101181.56;;;26.98;100.00
77626;BME280;66794;43.764;10.436;2023-07-20T06:05:59;101156.53;;;26.83;100.00
77626;BME280;66794;43.764;10.436;2023-07-20T06:08:46;101186.81;;;26.84;100.00
77626;BME280;66794;43.764;10.436;2023-07-20T06:11:32;101185.66;;;26.65;100.00
77626;BME280;66794;43.764;10.436;2023-07-20T06:14:17;101195.38;;;26.72;100.00
77626;BME280;66794;43.764;10.436;2023-07-20T06:17:04;101198.22;;;26.93;100.00
77626;BME280;66794;43.764;10.436;2023-07-20T06:19:49;101186.53;;;26.81;100.00
77626;BME280;66794;43.764;10.436;2023-07-20T06:22:35;101205.13;;;26.85;100.00
77626;BME280;66794;43.764;10.436;2023-07-20T06:25:21;101193.19;;;26.90;100.00
77626;BME280;66794;43.764;10.436;2023-07-20T06:28:07;101187.97;;;26.98;100.00
77626;BME280;66794;43.764;10.436;2023-07-20T06:31:01;101198.03;;;27.15;100.00
77626;BME280;66794;43.764;10.436;2023-07-20T06:33:47;101192.16;;;27.16;100.00
77626;BME280;66794;43.764;10.436;2023-07-20T06:36:33;101196.91;;;27.36;100.00
77626;BME280;66794;43.764;10.436;2023-07-20T06:39:19;101199.97;;;27.50;100.00
77626;BME280;66794;43.764;10.436;2023-07-20T06:42:05;101182.72;;;27.43;100.00
77626;BME280;66794;43.764;10.436;2023-07-20T06:44:51;101186.63;;;27.42;100.00
77626;BME280;66794;43.764;10.436;2023-07-20T06:47:40;101221.09;;;27.56;100.00
77626;BME280;66794;43.764;10.436;2023-07-20T06:50:26;101239.47;;;27.47;100.00
77626;BME280;66794;43.764;10.436;2023-07-20T06:53:12;101231.13;;;27.47;100.00
77626;BME280;66794;43.764;10.436;2023-07-20T06:55:57;101231.41;;;27.56;100.00
77626;BME280;66794;43.764;10.436;2023-07-20T06:58:43;101232.53;;;27.90;100.00
77626;BME280;66794;43.764;10.436;2023-07-20T07:01:29;101199.72;;;27.41;100.00
77626;BME280;66794;43.764;10.436;2023-07-20T07:04:14;101206.38;;;27.71;100.00
77626;BME280;66794;43.764;10.436;2023-07-20T07:07:01;101214.44;;;27.83;100.00
77626;BME280;66794;43.764;10.436;2023-07-20T07:09:48;101222.50;;;27.94;100.00
77626;BME280;66794;43.764;10.436;2023-07-20T07:12:34;101238.94;;;27.70;100.00
77626;BME280;66794;43.764;10.436;2023-07-20T07:15:23;101233.59;;;28.10;100.00
77626;BME280;66794;43.764;10.436;2023-07-20T07:18:08;101228.53;;;28.27;100.00
77626;BME280;66794;43.764;10.436;2023-07-20T07:20:54;101231.94;;;27.98;100.00
77626;BME280;66794;43.764;10.436;2023-07-20T07:23:20;101243.97;;;27.78;100.00
77626;BME280;66794;43.764;10.436;2023-07-20T07:25:46;101223.91;;;27.92;100.00
77626;BME280;66794;43.764;10.436;2023-07-20T07:28:12;101245.88;;;27.98;100.00
77626;BME280;66794;43.764;10.436;2023-07-20T07:30:37;101228.31;;;28.08;100.00
77626;BME280;66794;43.764;10.436;2023-07-20T07:33:03;101236.38;;;28.10;100.00
77626;BME280;66794;43.764;10.436;2023-07-20T07:35:29;101237.22;;;28.00;100.00
77626;BME280;66794;43.764;10.436;2023-07-20T07:37:54;101225.75;;;28.27;100.00
77626;BME280;66794;43.764;10.436;2023-07-20T07:40:20;101230.56;;;28.11;100.00
77626;BME280;66794;43.764;10.436;2023-07-20T07:42:45;101236.94;;;28.22;100.00
77626;BME280;66794;43.764;10.436;2023-07-20T07:45:11;101237.97;;;28.46;100.00
77626;BME280;66794;43.764;10.436;2023-07-20T07:47:36;101228.41;;;28.73;100.00
77626;BME280;66794;43.764;10.436;2023-07-20T07:50:02;101220.25;;;28.81;100.00
77626;BME280;66794;43.764;10.436;2023-07-20T07:52:28;101233.66;;;28.79;100.00
77626;BME280;66794;43.764;10.436;2023-07-20T07:54:53;101217.13;;;29.03;100.00
77626;BME280;66794;43.764;10.436;2023-07-20T07:57:19;101209.72;;;29.23;100.00
77626;BME280;66794;43.764;10.436;2023-07-20T07:59:45;101214.19;;;29.19;100.00
77626;BME280;66794;43.764;10.436;2023-07-20T08:02:10;101223.63;;;29.28;100.00
77626;BME280;66794;43.764;10.436;2023-07-20T08:04:36;101216.75;;;29.49;100.00
77626;BME280;66794;43.764;10.436;2023-07-20T08:07:03;101193.69;;;29.73;100.00
77626;BME280;66794;43.764;10.436;2023-07-20T08:09:29;101207.16;;;29.66;100.00
77626;BME280;66794;43.764;10.436;2023-07-20T08:11:55;101214.56;;;29.41;100.00
77626;BME280;66794;43.764;10.436;2023-07-20T08:14:20;101205.94;;;29.77;100.00
77626;BME280;66794;43.764;10.436;2023-07-20T08:16:45;101208.63;;;30.11;100.00
77626;BME280;66794;43.764;10.436;2023-07-20T08:19:12;101207.91;;;30.00;100.00
77626;BME280;66794;43.764;10.436;2023-07-20T08:21:38;101205.53;;;30.18;100.00
77626;BME280;66794;43.764;10.436;2023-07-20T08:24:03;101210.66;;;30.05;100.00
77626;BME280;66794;43.764;10.436;2023-07-20T08:26:29;101211.94;;;29.89;100.00
77626;BME280;66794;43.764;10.436;2023-07-20T08:28:54;101218.22;;;30.34;100.00
77626;BME280;66794;43.764;10.436;2023-07-20T08:31:20;101236.69;;;29.72;100.00
77626;BME280;66794;43.764;10.436;2023-07-20T08:33:46;101227.03;;;30.17;100.00
77626;BME280;66794;43.764;10.436;2023-07-20T08:36:11;101226.94;;;29.98;100.00
77626;BME280;66794;43.764;10.436;2023-07-20T08:38:36;101222.63;;;29.53;100.00
77626;BME280;66794;43.764;10.436;2023-07-20T08:41:02;101222.69;;;29.77;100.00
77626;BME280;66794;43.764;10.436;2023-07-20T08:43:28;101228.94;;;29.93;100.00
77626;BME280;66794;43.764;10.436;2023-07-20T08:45:54;101228.56;;;29.75;100.00
77626;BME280;66794;43.764;10.436;2023-07-20T08:48:21;101201.38;;;30.10;100.00
77626;BME280;66794;43.764;10.436;2023-07-20T08:50:49;101221.28;;;30.32;100.00
77626;BME280;66794;43.764;10.436;2023-07-20T08:53:16;101201.72;;;30.32;100.00
77626;BME280;66794;43.764;10.436;2023-07-20T08:55:44;101204.97;;;30.63;100.00
77626;BME280;66794;43.764;10.436;2023-07-20T08:58:12;101197.94;;;30.66;100.00
77626;BME280;66794;43.764;10.436;2023-07-20T09:00:38;101172.63;;;30.57;100.00
77626;BME280;66794;43.764;10.436;2023-07-20T09:03:03;101188.66;;;29.99;100.00
77626;BME280;66794;43.764;10.436;2023-07-20T09:05:30;101205.28;;;30.38;100.00
77626;BME280;66794;43.764;10.436;2023-07-20T09:07:55;101196.00;;;30.67;100.00
77626;BME280;66794;43.764;10.436;2023-07-20T09:10:22;101188.91;;;30.93;100.00
77626;BME280;66794;43.764;10.436;2023-07-20T09:12:48;101159.88;;;31.08;100.00
77626;BME280;66794;43.764;10.436;2023-07-20T09:15:13;101184.72;;;31.09;100.00
77626;BME280;66794;43.764;10.436;2023-07-20T09:17:39;101187.88;;;31.27;100.00
77626;BME280;66794;43.764;10.436;2023-07-20T09:20:06;101190.69;;;31.73;100.00
77626;BME280;66794;43.764;10.436;2023-07-20T09:22:39;101200.47;;;30.86;100.00
77626;BME280;66794;43.764;10.436;2023-07-20T09:25:17;101189.28;;;31.43;100.00
77626;BME280;66794;43.764;10.436;2023-07-20T09:27:46;101187.25;;;31.62;100.00
77626;BME280;66794;43.764;10.436;2023-07-20T09:30:14;101172.91;;;32.10;100.00
77626;BME280;66794;43.764;10.436;2023-07-20T09:32:47;101192.44;;;31.69;100.00
77626;BME280;66794;43.764;10.436;2023-07-20T09:37:41;101184.19;;;31.91;100.00
77626;BME280;66794;43.764;10.436;2023-07-20T09:40:11;101176.91;;;31.77;100.00
77626;BME280;66794;43.764;10.436;2023-07-20T09:42:36;101185.47;;;31.99;100.00
77626;BME280;66794;43.764;10.436;2023-07-20T09:45:05;101172.50;;;32.17;100.00
77626;BME280;66794;43.764;10.436;2023-07-20T09:47:35;101189.38;;;31.38;100.00
77626;BME280;66794;43.764;10.436;2023-07-20T09:50:02;101187.50;;;31.47;100.00
77626;BME280;66794;43.764;10.436;2023-07-20T09:52:29;101171.28;;;31.30;100.00
77626;BME280;66794;43.764;10.436;2023-07-20T09:54:56;101173.94;;;31.03;100.00
77626;BME280;66794;43.764;10.436;2023-07-20T09:57:23;101185.94;;;31.22;100.00
77626;BME280;66794;43.764;10.436;2023-07-20T09:59:48;101180.41;;;31.36;100.00
77626;BME280;66794;43.764;10.436;2023-07-20T10:02:24;101179.16;;;31.61;100.00
77626;BME280;66794;43.764;10.436;2023-07-20T10:04:52;101167.22;;;31.55;100.00
77626;BME280;66794;43.764;10.436;2023-07-20T10:07:19;101173.47;;;31.14;100.00
77626;BME280;66794;43.764;10.436;2023-07-20T10:09:48;101157.81;;;31.13;100.00
77626;BME280;66794;43.764;10.436;2023-07-20T10:12:15;101169.69;;;31.43;100.00
77626;BME280;66794;43.764;10.436;2023-07-20T10:14:52;101164.56;;;31.78;100.00
77626;BME280;66794;43.764;10.436;2023-07-20T10:17:20;101166.50;;;31.63;100.00
77626;BME280;66794;43.764;10.436;2023-07-20T10:19:54;101165.38;;;31.78;100.00
77626;BME280;66794;43.764;10.436;2023-07-20T10:22:25;101150.19;;;32.26;100.00
77626;BME280;66794;43.764;10.436;2023-07-20T10:24:51;101157.34;;;31.90;100.00
77626;BME280;66794;43.764;10.436;2023-07-20T10:27:20;101156.84;;;31.88;100.00
77626;BME280;66794;43.764;10.436;2023-07-20T10:29:46;101158.25;;;32.68;100.00
77626;BME280;66794;43.764;10.436;2023-07-20T10:32:12;101155.13;;;32.70;100.00
77626;BME280;66794;43.764;10.436;2023-07-20T10:34:39;101145.25;;;32.72;100.00
77626;BME280;66794;43.764;10.436;2023-07-20T10:37:04;101139.94;;;32.71;100.00
77626;BME280;66794;43.764;10.436;2023-07-20T10:39:33;101148.75;;;32.14;100.00
77626;BME280;66794;43.764;10.436;2023-07-20T10:42:06;101138.69;;;32.41;100.00
77626;BME280;66794;43.764;10.436;2023-07-20T10:44:32;101137.13;;;32.21;100.00
77626;BME280;66794;43.764;10.436;2023-07-20T10:47:08;101139.28;;;32.52;100.00
77626;BME280;66794;43.764;10.436;2023-07-20T10:49:34;101129.69;;;33.03;100.00
77626;BME280;66794;43.764;10.436;2023-07-20T10:52:04;101112.22;;;33.28;100.00
77626;BME280;66794;43.764;10.436;2023-07-20T10:57:22;101145.41;;;32.40;100.00
77626;BME280;66794;43.764;10.436;2023-07-20T10:59:48;101122.31;;;32.57;100.00
77626;BME280;66794;43.764;10.436;2023-07-20T11:02:18;101119.28;;;33.48;100.00
77626;BME280;66794;43.764;10.436;2023-07-20T11:04:45;101130.00;;;33.23;100.00
77626;BME280;66794;43.764;10.436;2023-07-20T11:07:36;101127.34;;;33.41;100.00
77626;BME280;66794;43.764;10.436;2023-07-20T11:10:13;101130.97;;;33.41;100.00
77626;BME280;66794;43.764;10.436;2023-07-20T11:12:40;101127.50;;;33.67;100.00
77626;BME280;66794;43.764;10.436;2023-07-20T11:15:06;101128.50;;;32.95;100.00
77626;BME280;66794;43.764;10.436;2023-07-20T11:17:32;101136.88;;;32.59;100.00
77626;BME280;66794;43.764;10.436;2023-07-20T11:19:59;101143.16;;;32.14;100.00
77626;BME280;66794;43.764;10.436;2023-07-20T11:22:30;101133.53;;;32.70;100.00
77626;BME280;66794;43.764;10.436;2023-07-20T11:24:56;101145.63;;;31.88;100.00
77626;BME280;66794;43.764;10.436;2023-07-20T11:27:23;101138.78;;;31.81;100.00
77626;BME280;66794;43.764;10.436;2023-07-20T11:29:49;101133.38;;;32.53;100.00
77626;BME280;66794;43.764;10.436;2023-07-20T11:32:25;101131.94;;;32.42;100.00
77626;BME280;66794;43.764;10.436;2023-07-20T11:34:50;101114.28;;;32.41;100.00
77626;BME280;66794;43.764;10.436;2023-07-20T11:37:19;101106.91;;;32.32;100.00
77626;BME280;66794;43.764;10.436;2023-07-20T11:39:45;101114.13;;;32.96;100.00
77626;BME280;66794;43.764;10.436;2023-07-20T11:42:11;101130.38;;;33.53;100.00
77626;BME280;66794;43.764;10.436;2023-07-20T11:44:37;101117.44;;;33.43;100.00
77626;BME280;66794;43.764;10.436;2023-07-20T11:47:12;101123.72;;;33.71;100.00
77626;BME280;66794;43.764;10.436;2023-07-20T11:49:42;101122.25;;;34.22;100.00
77626;BME280;66794;43.764;10.436;2023-07-20T11:52:15;101101.47;;;33.30;100.00
77626;BME280;66794;43.764;10.436;2023-07-20T11:54:42;101113.31;;;33.41;100.00
77626;BME280;66794;43.764;10.436;2023-07-20T11:57:16;101095.38;;;33.28;100.00
77626;BME280;66794;43.764;10.436;2023-07-20T11:59:53;101097.44;;;32.28;100.00
77626;BME280;66794;43.764;10.436;2023-07-20T12:02:20;101085.72;;;32.76;100.00
77626;BME280;66794;43.764;10.436;2023-07-20T12:04:47;101090.06;;;32.82;100.00
77626;BME280;66794;43.764;10.436;2023-07-20T12:07:13;101086.66;;;33.07;100.00
77626;BME280;66794;43.764;10.436;2023-07-20T12:09:38;101073.09;;;32.64;100.00
77626;BME280;66794;43.764;10.436;2023-07-20T12:12:09;101086.16;;;32.69;100.00
77626;BME280;66794;43.764;10.436;2023-07-20T12:14:37;101082.69;;;33.08;100.00
77626;BME280;66794;43.764;10.436;2023-07-20T12:17:02;101074.13;;;33.67;100.00
77626;BME280;66794;43.764;10.436;2023-07-20T12:19:28;101077.97;;;33.80;100.00
77626;BME280;66794;43.764;10.436;2023-07-20T12:21:57;101102.97;;;33.59;100.00
77626;BME280;66794;43.764;10.436;2023-07-20T12:24:24;101090.31;;;33.39;100.00
77626;BME280;66794;43.764;10.436;2023-07-20T12:26:56;101093.88;;;33.53;100.00
77626;BME280;66794;43.764;10.436;2023-07-20T12:29:22;101084.00;;;33.33;100.00
77626;BME280;66794;43.764;10.436;2023-07-20T12:31:48;101088.78;;;33.95;100.00
77626;BME280;66794;43.764;10.436;2023-07-20T12:34:13;101078.75;;;34.11;100.00
77626;BME280;66794;43.764;10.436;2023-07-20T12:36:39;101085.38;;;34.15;100.00
77626;BME280;66794;43.764;10.436;2023-07-20T12:39:04;101097.06;;;33.38;100.00
77626;BME280;66794;43.764;10.436;2023-07-20T12:41:30;101085.56;;;34.27;100.00
77626;BME280;66794;43.764;10.436;2023-07-20T12:43:56;101072.78;;;33.64;100.00
77626;BME280;66794;43.764;10.436;2023-07-20T12:46:23;101080.81;;;34.54;100.00
77626;BME280;66794;43.764;10.436;2023-07-20T12:48:49;101064.34;;;34.04;100.00
77626;BME280;66794;43.764;10.436;2023-07-20T12:51:15;101092.03;;;33.48;100.00
77626;BME280;66794;43.764;10.436;2023-07-20T12:53:40;101066.47;;;32.83;100.00
77626;BME280;66794;43.764;10.436;2023-07-20T12:56:06;101089.88;;;33.45;100.00
77626;BME280;66794;43.764;10.436;2023-07-20T12:58:32;101068.34;;;34.29;100.00
77626;BME280;66794;43.764;10.436;2023-07-20T13:00:57;101071.91;;;34.69;100.00
77626;BME280;66794;43.764;10.436;2023-07-20T13:03:23;101063.47;;;34.69;100.00
77626;BME280;66794;43.764;10.436;2023-07-20T13:05:48;101075.50;;;33.87;100.00
77626;BME280;66794;43.764;10.436;2023-07-20T13:08:14;101087.63;;;33.56;100.00
77626;BME280;66794;43.764;10.436;2023-07-20T13:10:40;101074.81;;;34.38;100.00
77626;BME280;66794;43.764;10.436;2023-07-20T13:13:06;101075.53;;;34.61;100.00
77626;BME280;66794;43.764;10.436;2023-07-20T13:15:33;101054.41;;;33.98;100.00
77626;BME280;66794;43.764;10.436;2023-07-20T13:18:05;101077.16;;;34.62;100.00
77626;BME280;66794;43.764;10.436;2023-07-20T13:20:31;101077.81;;;33.45;100.00
77626;BME280;66794;43.764;10.436;2023-07-20T13:22:56;101065.59;;;34.46;100.00
77626;BME280;66794;43.764;10.436;2023-07-20T13:25:21;101080.81;;;34.80;100.00
77626;BME280;66794;43.764;10.436;2023-07-20T13:27:47;101072.69;;;34.78;100.00
77626;BME280;66794;43.764;10.436;2023-07-20T13:30:13;101069.84;;;34.26;100.00
77626;BME280;66794;43.764;10.436;2023-07-20T13:32:43;101064.44;;;34.65;100.00